Time;durP1;ratioP1;P1;durP2;ratioP2;P2;SDS_P1;SDS_P2;PMS_P1;PMS_P2;Temp;Humidity;BMP_temperature;BMP_pressure;BME280_temperature;BME280_humidity;BME280_pressure;Samples;Min_cycle;Max_cycle;Signal;HPM_P1;HPM_P2
2022/03/08 00:01:51;;;;;;;10.98;6.22;;;-0.30;99.90;;;;;;6101501;23;20059;-79
2022/03/08 00:04:17;;;;;;;12.35;6.65;;;-0.30;99.90;;;;;;6101318;23;20388;-79
2022/03/08 00:06:42;;;;;;;10.35;5.93;;;-0.30;99.90;;;;;;6077194;23;20018;-79
2022/03/08 00:09:08;;;;;;;14.02;6.40;;;-0.30;99.90;;;;;;6125993;23;20014;-79
2022/03/08 00:11:34;;;;;;;12.15;7.07;;;-0.20;99.90;;;;;;6101004;23;20018;-79
2022/03/08 00:14:00;;;;;;;11.48;6.53;;;-0.40;99.90;;;;;;6101761;23;20029;-79
2022/03/08 00:16:26;;;;;;;11.95;6.45;;;-0.40;99.90;;;;;;6150246;23;20025;-79
2022/03/08 00:18:51;;;;;;;9.75;5.82;;;-0.40;99.90;;;;;;6125557;23;20017;-79
2022/03/08 00:21:18;;;;;;;10.27;6.45;;;-0.40;99.90;;;;;;6077246;23;20053;-79
2022/03/08 00:23:44;;;;;;;11.45;5.60;;;-0.50;99.90;;;;;;6101373;23;20052;-79
2022/03/08 00:26:10;;;;;;;11.05;6.65;;;-0.50;99.90;;;;;;6125746;23;20017;-79
2022/03/08 00:28:36;;;;;;;11.43;7.15;;;-0.10;99.90;;;;;;6150018;23;20470;-79
2022/03/08 00:31:01;;;;;;;13.55;6.60;;;-0.50;99.90;;;;;;6100829;23;20078;-79
2022/03/08 00:33:27;;;;;;;12.10;6.70;;;-0.60;99.90;;;;;;6125435;23;20025;-79
2022/03/08 00:35:53;;;;;;;10.95;6.28;;;-0.50;99.90;;;;;;6125560;23;20077;-79
2022/03/08 00:38:20;;;;;;;14.00;7.80;;;-0.60;99.90;;;;;;6100348;23;20059;-79
2022/03/08 00:40:46;;;;;;;12.77;7.32;;;-0.50;99.90;;;;;;6125085;23;20333;-79
2022/03/08 00:43:12;;;;;;;13.68;6.80;;;-0.50;99.90;;;;;;6125354;23;20021;-79
2022/03/08 00:45:38;;;;;;;12.68;7.65;;;-0.50;99.90;;;;;;6100934;23;20014;-79
2022/03/08 00:48:04;;;;;;;13.60;6.22;;;-0.50;99.90;;;;;;6100617;23;20021;-79
2022/03/08 00:50:31;;;;;;;13.85;6.68;;;-0.50;99.90;;;;;;6101084;23;20021;-79
2022/03/08 00:52:58;;;;;;;11.88;6.80;;;-0.50;99.90;;;;;;6125595;23;20482;-79
2022/03/08 00:55:26;;;;;;;12.25;6.80;;;0.90;99.90;;;;;;6100639;23;20053;-79
2022/03/08 00:57:53;;;;;;;13.10;7.03;;;0.90;99.90;;;;;;6149920;23;20032;-79
2022/03/08 01:00:23;;;;;;;12.10;7.25;;;-0.50;99.90;;;;;;6100375;23;20033;-79
2022/03/08 01:02:49;;;;;;;10.77;6.93;;;-0.60;99.90;;;;;;6100638;23;20025;-79
2022/03/08 01:05:15;;;;;;;12.63;7.13;;;-0.60;99.90;;;;;;6100636;23;20035;-79
2022/03/08 01:07:42;;;;;;;13.13;6.72;;;-0.60;99.90;;;;;;6100503;23;20017;-79
2022/03/08 01:10:12;;;;;;;16.40;7.60;;;-0.60;99.90;;;;;;6125167;23;20017;-79
2022/03/08 01:12:38;;;;;;;14.40;7.57;;;-0.70;99.90;;;;;;6125107;23;20081;-79
2022/03/08 01:15:06;;;;;;;12.05;7.30;;;-0.80;99.90;;;;;;6124928;23;20024;-79
2022/03/08 01:17:32;;;;;;;14.60;7.13;;;-0.80;99.90;;;;;;6100742;23;20088;-79
2022/03/08 01:19:57;;;;;;;13.02;7.10;;;-0.80;99.90;;;;;;6100841;23;20014;-79
2022/03/08 01:22:23;;;;;;;11.73;7.15;;;-0.90;99.90;;;;;;6149449;23;20124;-79
2022/03/08 01:24:49;;;;;;;12.00;6.97;;;-0.90;99.90;;;;;;6101045;23;20021;-79
2022/03/08 01:27:15;;;;;;;13.18;7.45;;;-1.00;99.90;;;;;;6149365;23;20022;-79
2022/03/08 01:29:41;;;;;;;12.77;7.25;;;-1.00;99.90;;;;;;6124896;23;20021;-78
2022/03/08 01:32:07;;;;;;;12.85;6.53;;;-1.00;99.90;;;;;;6100279;23;20017;-79
2022/03/08 01:34:34;;;;;;;14.23;7.43;;;-1.00;99.90;;;;;;6125157;23;20024;-79
2022/03/08 01:37:01;;;;;;;12.82;7.20;;;-1.10;99.90;;;;;;6100813;23;20081;-79
2022/03/08 01:39:26;;;;;;;12.63;6.65;;;-1.10;99.90;;;;;;6076492;23;20057;-79
2022/03/08 01:41:52;;;;;;;11.95;7.10;;;-1.20;99.90;;;;;;6149463;23;20022;-79
2022/03/08 01:44:19;;;;;;;13.38;7.25;;;-1.20;99.90;;;;;;6149069;23;20037;-78
2022/03/08 01:46:45;;;;;;;13.82;7.25;;;-1.30;99.90;;;;;;6100866;23;20017;-79
2022/03/08 01:49:10;;;;;;;11.52;7.10;;;-1.30;99.90;;;;;;6149059;23;20096;-79
2022/03/08 01:51:39;;;;;;;13.70;7.10;;;-1.40;99.90;;;;;;6125155;23;20014;-79
2022/03/08 01:54:06;;;;;;;15.20;8.10;;;-1.40;99.90;;;;;;6125004;23;20065;-79
2022/03/08 01:56:33;;;;;;;14.93;6.57;;;-1.40;99.90;;;;;;6124932;23;20529;-78
2022/03/08 01:59:00;;;;;;;10.80;6.43;;;-1.50;99.90;;;;;;6124681;23;20022;-78
2022/03/08 02:01:26;;;;;;;14.13;6.63;;;-1.50;99.90;;;;;;6100362;23;20092;-78
2022/03/08 02:03:51;;;;;;;12.18;6.57;;;-1.50;99.90;;;;;;6100086;23;20077;-79
2022/03/08 02:06:17;;;;;;;13.73;7.47;;;-1.50;99.90;;;;;;6100907;23;20018;-79
2022/03/08 02:08:44;;;;;;;12.85;7.78;;;-1.50;99.90;;;;;;6100056;23;20017;-78
2022/03/08 02:11:10;;;;;;;14.50;7.80;;;-1.50;99.90;;;;;;6124684;23;20017;-78
2022/03/08 02:13:38;;;;;;;12.43;6.93;;;-1.50;99.90;;;;;;6099634;23;20053;-78
2022/03/08 02:16:05;;;;;;;19.13;7.85;;;-1.50;99.90;;;;;;6100190;23;20021;-78
2022/03/08 02:18:32;;;;;;;14.90;8.07;;;-1.50;99.90;;;;;;6100257;23;20036;-78
2022/03/08 02:21:08;;;;;;;15.10;7.45;;;-1.50;99.90;;;;;;6100643;23;20053;-79
2022/03/08 02:23:35;;;;;;;14.57;8.63;;;-1.20;99.90;;;;;;6148634;23;20013;-78
2022/03/08 02:26:01;;;;;;;14.07;7.72;;;-1.50;99.90;;;;;;6150173;23;20013;-78
2022/03/08 02:28:28;;;;;;;14.63;7.28;;;-1.50;99.90;;;;;;6100517;23;20013;-78
2022/03/08 02:30:54;;;;;;;16.08;8.38;;;-1.50;99.90;;;;;;6124779;23;20021;-79
2022/03/08 02:33:20;;;;;;;16.75;8.95;;;-1.50;99.90;;;;;;6124360;23;20033;-78
2022/03/08 02:35:46;;;;;;;19.10;8.93;;;-1.50;99.90;;;;;;6149769;23;20053;-79
2022/03/08 02:38:12;;;;;;;17.58;8.23;;;-1.50;99.90;;;;;;6149152;23;20017;-78
2022/03/08 02:40:39;;;;;;;18.73;8.93;;;-1.50;99.90;;;;;;6144858;23;20030;-78
2022/03/08 02:43:07;;;;;;;16.77;8.52;;;-1.40;99.90;;;;;;6097070;23;20025;-79
2022/03/08 02:45:33;;;;;;;17.40;8.65;;;-1.40;99.90;;;;;;6100172;23;20013;-79
2022/03/08 02:47:59;;;;;;;16.48;7.97;;;-1.40;99.90;;;;;;6124691;23;20029;-79
2022/03/08 02:50:25;;;;;;;17.98;8.60;;;-1.40;99.90;;;;;;6124442;23;20017;-79
2022/03/08 02:52:54;;;;;;;15.07;8.77;;;-1.40;99.90;;;;;;6100168;23;20112;-79
2022/03/08 02:55:22;;;;;;;13.93;8.55;;;-1.40;99.90;;;;;;6123690;23;20027;-79
2022/03/08 02:57:49;;;;;;;16.08;8.63;;;-0.90;99.90;;;;;;6149420;23;20032;-79
2022/03/08 03:00:16;;;;;;;13.05;7.63;;;-1.30;99.90;;;;;;6100163;23;20021;-78
2022/03/08 03:02:42;;;;;;;18.02;9.50;;;-1.40;99.90;;;;;;6102539;23;20028;-79
2022/03/08 03:05:09;;;;;;;13.85;8.27;;;-1.40;99.90;;;;;;6126277;23;20021;-78
2022/03/08 03:07:35;;;;;;;16.63;8.65;;;-1.40;99.90;;;;;;6102322;23;20045;-79
2022/03/08 03:10:03;;;;;;;15.50;8.90;;;-1.50;99.90;;;;;;6150749;23;20017;-79
2022/03/08 03:12:29;;;;;;;16.77;8.55;;;-1.30;99.90;;;;;;6126843;23;20334;-79
2022/03/08 03:14:54;;;;;;;16.02;8.82;;;-1.50;99.90;;;;;;6126039;23;20025;-79
2022/03/08 03:17:20;;;;;;;17.80;9.05;;;-1.50;99.90;;;;;;6151518;23;20345;-79
2022/03/08 03:19:45;;;;;;;19.10;9.65;;;-1.60;99.90;;;;;;6101846;23;20017;-79
2022/03/08 03:22:11;;;;;;;19.25;9.30;;;-1.50;99.90;;;;;;6150763;23;20017;-79
2022/03/08 03:24:37;;;;;;;17.73;8.82;;;-1.50;99.90;;;;;;6101382;23;20025;-79
2022/03/08 03:27:03;;;;;;;23.00;9.93;;;-1.50;99.90;;;;;;6126276;23;20068;-79
2022/03/08 03:29:28;;;;;;;15.23;8.50;;;-1.50;99.90;;;;;;6101762;23;20454;-79
2022/03/08 03:31:54;;;;;;;21.15;9.88;;;-1.50;99.90;;;;;;6101600;23;20021;-79
2022/03/08 03:34:20;;;;;;;18.38;9.48;;;-1.50;99.90;;;;;;6101269;23;20477;-79
2022/03/08 03:36:45;;;;;;;14.90;9.00;;;-1.50;99.90;;;;;;6126110;23;20022;-78
2022/03/08 03:39:11;;;;;;;16.50;9.18;;;-1.50;99.90;;;;;;6149485;23;20445;-79
2022/03/08 03:41:37;;;;;;;18.85;9.55;;;-1.50;99.90;;;;;;6126042;23;20338;-79
2022/03/08 03:44:03;;;;;;;17.40;8.80;;;-0.90;99.90;;;;;;6125942;23;20100;-79
2022/03/08 03:46:28;;;;;;;20.35;10.20;;;-1.50;99.90;;;;;;6150714;23;20018;-78
2022/03/08 03:48:54;;;;;;;17.75;9.20;;;-1.50;99.90;;;;;;6077404;23;20417;-79
2022/03/08 03:51:20;;;;;;;20.30;9.68;;;-1.40;99.90;;;;;;6101501;23;20022;-79
2022/03/08 03:53:46;;;;;;;17.90;10.10;;;-1.50;99.90;;;;;;6150527;23;20073;-79
2022/03/08 03:56:12;;;;;;;18.83;9.65;;;-0.10;99.90;;;;;;6101226;23;20080;-79
2022/03/08 03:58:38;;;;;;;16.60;9.50;;;-1.50;99.90;;;;;;6101088;23;20025;-79
2022/03/08 04:01:04;;;;;;;16.73;9.35;;;-1.50;99.90;;;;;;6101169;23;20056;-79
2022/03/08 04:03:31;;;;;;;22.35;10.50;;;-1.50;99.90;;;;;;6101399;23;20022;-79
2022/03/08 04:05:56;;;;;;;20.13;10.25;;;-1.50;99.90;;;;;;6125471;23;20052;-79
2022/03/08 04:08:22;;;;;;;19.80;10.07;;;-1.50;99.90;;;;;;6077693;23;20017;-79
2022/03/08 04:10:50;;;;;;;16.90;9.80;;;-1.50;99.90;;;;;;6077114;23;20552;-79
2022/03/08 04:13:16;;;;;;;18.92;10.88;;;-1.50;99.90;;;;;;6101471;23;20073;-79
2022/03/08 04:15:43;;;;;;;21.50;11.13;;;-1.50;99.90;;;;;;6100908;23;20718;-79
2022/03/08 04:18:08;;;;;;;19.40;10.15;;;-1.50;99.90;;;;;;6101456;23;20017;-79
2022/03/08 04:20:35;;;;;;;18.48;10.38;;;-1.50;99.90;;;;;;6101163;23;20487;-79
2022/03/08 04:23:00;;;;;;;22.30;11.02;;;-1.50;99.90;;;;;;6125746;23;20030;-79
2022/03/08 04:25:26;;;;;;;18.95;10.50;;;-1.50;99.90;;;;;;6100955;23;20014;-78
2022/03/08 04:27:53;;;;;;;22.30;10.38;;;-1.50;99.90;;;;;;6077276;23;20024;-78
2022/03/08 04:30:18;;;;;;;17.17;10.25;;;-1.60;99.90;;;;;;6101097;23;20021;-78
2022/03/08 04:32:44;;;;;;;21.42;11.27;;;-1.50;99.90;;;;;;6077365;23;20017;-78
2022/03/08 04:35:11;;;;;;;21.25;11.10;;;-1.50;99.90;;;;;;6053172;23;20025;-79
2022/03/08 04:37:37;;;;;;;18.88;9.68;;;-1.50;99.90;;;;;;6125623;23;20105;-79
2022/03/08 04:40:07;;;;;;;18.23;10.65;;;-1.50;99.90;;;;;;6100791;23;20036;-78
2022/03/08 04:42:33;;;;;;;17.55;9.48;;;-1.50;99.90;;;;;;6125659;23;20017;-78
2022/03/08 04:44:59;;;;;;;22.27;10.93;;;-1.60;99.90;;;;;;6101162;23;20017;-78
2022/03/08 04:47:25;;;;;;;21.33;10.98;;;-1.60;99.90;;;;;;6100628;23;20021;-78
2022/03/08 04:49:50;;;;;;;20.65;11.43;;;-1.60;99.90;;;;;;6077284;23;20418;-78
2022/03/08 04:52:16;;;;;;;22.75;11.57;;;-1.70;99.90;;;;;;6124272;23;20061;-78
2022/03/08 04:54:42;;;;;;;29.23;10.85;;;-1.70;99.90;;;;;;6072724;23;20373;-79
2022/03/08 04:57:08;;;;;;;22.88;12.18;;;-1.70;99.90;;;;;;6074349;23;20073;-79
2022/03/08 04:59:33;;;;;;;22.25;10.95;;;-1.70;99.90;;;;;;6100645;23;20021;-79
2022/03/08 05:01:59;;;;;;;23.65;12.60;;;-1.70;99.90;;;;;;6100359;23;20017;-78
2022/03/08 05:04:25;;;;;;;18.63;10.70;;;-1.80;99.90;;;;;;6124845;23;20077;-78
2022/03/08 05:06:50;;;;;;;22.80;11.25;;;-1.80;99.90;;;;;;6101027;23;20075;-78
2022/03/08 05:09:17;;;;;;;21.48;11.70;;;-1.80;99.90;;;;;;6101049;23;20014;-79
2022/03/08 05:11:43;;;;;;;21.95;12.27;;;-1.80;99.90;;;;;;6100705;23;20005;-79
2022/03/08 05:14:09;;;;;;;24.60;11.93;;;-1.80;99.90;;;;;;6125741;23;20021;-79
2022/03/08 05:16:35;;;;;;;21.63;12.20;;;-1.80;99.90;;;;;;6076483;23;20149;-79
2022/03/08 05:19:01;;;;;;;17.67;10.57;;;-1.80;99.90;;;;;;6100899;23;20021;-79
2022/03/08 05:21:27;;;;;;;26.55;12.05;;;-1.80;99.90;;;;;;6076475;23;20028;-78
2022/03/08 05:23:52;;;;;;;20.17;11.32;;;-1.80;99.90;;;;;;6052621;23;20100;-78
2022/03/08 05:26:18;;;;;;;23.05;11.02;;;-1.60;99.90;;;;;;6100716;23;20073;-78
2022/03/08 05:28:44;;;;;;;22.80;12.38;;;-1.50;99.90;;;;;;6076858;23;20454;-79
2022/03/08 05:31:14;;;;;;;21.92;11.05;;;-1.90;99.90;;;;;;6100255;23;20473;-78
2022/03/08 05:33:40;;;;;;;25.15;12.65;;;-1.90;99.90;;;;;;6124865;23;20021;-78
2022/03/08 05:36:05;;;;;;;20.70;11.18;;;-1.90;99.90;;;;;;6100911;23;20097;-79
2022/03/08 05:38:31;;;;;;;23.73;12.05;;;-1.90;99.90;;;;;;6100405;23;20021;-79
2022/03/08 05:40:57;;;;;;;23.77;12.23;;;-1.90;99.90;;;;;;6124532;23;20037;-79
2022/03/08 05:43:23;;;;;;;22.42;12.50;;;-1.90;99.90;;;;;;6124315;23;20150;-78
2022/03/08 05:45:49;;;;;;;19.63;11.85;;;-1.90;99.90;;;;;;6076673;23;20057;-78
2022/03/08 05:48:15;;;;;;;22.65;11.73;;;-2.00;99.90;;;;;;6100298;23;20132;-78
2022/03/08 05:50:41;;;;;;;25.35;12.98;;;-2.00;99.90;;;;;;6100432;23;20013;-78
2022/03/08 05:53:06;;;;;;;23.35;12.18;;;-2.00;99.90;;;;;;6124509;23;20024;-79
2022/03/08 05:55:33;;;;;;;23.83;11.73;;;-1.80;99.90;;;;;;6099774;23;20104;-78
2022/03/08 05:57:59;;;;;;;22.52;12.52;;;-2.00;99.90;;;;;;6099708;23;20476;-78
2022/03/08 06:00:25;;;;;;;24.08;12.55;;;-2.00;99.90;;;;;;6052173;23;20044;-78
2022/03/08 06:02:50;;;;;;;22.83;12.25;;;-2.00;99.90;;;;;;6076063;23;20126;-78
2022/03/08 06:05:16;;;;;;;23.33;12.82;;;-2.10;99.90;;;;;;6100442;23;20013;-78
2022/03/08 06:07:42;;;;;;;24.60;11.95;;;-2.10;99.90;;;;;;6124178;23;20072;-78
2022/03/08 06:10:09;;;;;;;26.38;11.98;;;-2.10;99.90;;;;;;6076124;23;20088;-80
2022/03/08 06:12:35;;;;;;;22.60;11.25;;;-2.20;99.90;;;;;;6123941;23;20010;-79
2022/03/08 06:15:01;;;;;;;25.33;11.35;;;-2.20;99.90;;;;;;6124183;23;20010;-79
2022/03/08 06:17:27;;;;;;;21.10;12.05;;;-2.20;99.90;;;;;;6099999;23;20140;-78
2022/03/08 06:19:53;;;;;;;25.20;11.88;;;-2.30;99.90;;;;;;6052986;23;20100;-79
2022/03/08 06:22:18;;;;;;;27.17;13.07;;;-2.30;99.90;;;;;;6075648;23;20017;-78
2022/03/08 06:24:44;;;;;;;21.98;11.30;;;-2.30;99.90;;;;;;6099641;23;20028;-78
2022/03/08 06:27:10;;;;;;;21.13;12.25;;;-2.40;99.90;;;;;;6123867;23;20013;-78
2022/03/08 06:29:36;;;;;;;23.58;13.00;;;-2.40;99.90;;;;;;6076049;23;20018;-79
2022/03/08 06:32:02;;;;;;;26.17;12.77;;;-2.40;99.90;;;;;;6100028;23;20465;-78
2022/03/08 06:34:28;;;;;;;28.15;14.00;;;-2.30;99.90;;;;;;6124730;23;20028;-78
2022/03/08 06:36:54;;;;;;;39.72;13.65;;;-2.30;99.90;;;;;;6102664;23;20022;-78
2022/03/08 06:39:19;;;;;;;30.65;13.80;;;-2.30;99.90;;;;;;6102100;23;20018;-78
2022/03/08 06:41:45;;;;;;;28.55;13.63;;;-2.30;99.90;;;;;;6102336;23;20025;-79
2022/03/08 06:44:11;;;;;;;26.80;14.43;;;-2.20;99.90;;;;;;6077769;23;20024;-78
2022/03/08 06:46:41;;;;;;;25.23;13.88;;;-1.20;99.90;;;;;;6127047;23;20020;-78
2022/03/08 06:49:08;;;;;;;27.35;14.00;;;-2.10;99.90;;;;;;6151124;23;20394;-78
2022/03/08 06:51:34;;;;;;;28.40;13.50;;;-1.60;99.90;;;;;;6102695;23;20013;-78
2022/03/08 06:54:00;;;;;;;27.48;13.82;;;-2.00;99.90;;;;;;6101752;23;20013;-78
2022/03/08 06:56:26;;;;;;;26.33;12.82;;;-1.90;99.90;;;;;;6078163;23;20449;-78
2022/03/08 06:58:52;;;;;;;22.98;12.73;;;-1.90;99.90;;;;;;6078150;23;20505;-78
2022/03/08 07:01:17;;;;;;;27.88;13.07;;;-1.80;99.90;;;;;;6126551;23;20033;-78
2022/03/08 07:03:43;;;;;;;26.95;13.27;;;-1.70;99.90;;;;;;6126006;23;20121;-78
2022/03/08 07:06:10;;;;;;;25.65;12.50;;;-0.10;99.90;;;;;;6126686;23;20639;-79
2022/03/08 07:08:37;;;;;;;22.25;12.55;;;-1.30;99.90;;;;;;6126181;23;20018;-78
2022/03/08 07:11:04;;;;;;;26.50;13.30;;;-1.40;99.90;;;;;;6055020;23;20449;-78
2022/03/08 07:13:30;;;;;;;26.00;13.45;;;-1.30;99.90;;;;;;6101577;23;20132;-78
2022/03/08 07:15:56;;;;;;;23.30;12.93;;;-1.30;99.90;;;;;;6126448;23;20439;-78
2022/03/08 07:18:23;;;;;;;25.02;12.98;;;-1.20;99.90;;;;;;6078094;23;20055;-78
2022/03/08 07:20:50;;;;;;;25.45;12.75;;;-1.10;99.90;;;;;;6126377;23;20022;-78
2022/03/08 07:23:16;;;;;;;27.27;13.07;;;-1.00;99.90;;;;;;6077979;23;20334;-78
2022/03/08 07:25:42;;;;;;;22.52;13.13;;;-0.90;99.90;;;;;;6125943;23;20018;-78
2022/03/08 07:28:08;;;;;;;27.52;13.02;;;-0.80;99.90;;;;;;6054327;23;20020;-78
2022/03/08 07:30:34;;;;;;;23.13;12.68;;;-0.30;99.90;;;;;;6101458;23;20017;-78
2022/03/08 07:33:00;;;;;;;23.70;12.77;;;-0.60;99.90;;;;;;6101906;23;20037;-78
2022/03/08 07:35:25;;;;;;;20.50;12.35;;;-0.40;99.90;;;;;;6101433;23;20491;-78
2022/03/08 07:37:51;;;;;;;22.33;12.68;;;-0.30;99.90;;;;;;6126670;23;20464;-78
2022/03/08 07:40:17;;;;;;;19.08;11.30;;;-0.20;99.90;;;;;;6077103;23;20536;-78
2022/03/08 07:42:43;;;;;;;24.70;12.23;;;0.00;99.90;;;;;;6102248;23;20464;-78
2022/03/08 07:45:09;;;;;;;21.95;12.43;;;0.10;99.90;;;;;;6101484;23;20013;-78
2022/03/08 07:47:34;;;;;;;27.63;12.75;;;0.30;99.90;;;;;;6099822;23;20041;-78
2022/03/08 07:50:00;;;;;;;22.65;12.45;;;0.70;99.90;;;;;;6089546;23;20457;-77
2022/03/08 07:52:26;;;;;;;20.15;11.10;;;1.50;99.90;;;;;;6117960;23;20400;-78
2022/03/08 07:54:53;;;;;;;23.33;11.88;;;2.20;99.90;;;;;;6046108;23;20029;-79
2022/03/08 07:57:18;;;;;;;18.92;11.50;;;2.60;99.90;;;;;;6118788;23;20029;-78
2022/03/08 07:59:44;;;;;;;17.38;11.02;;;3.00;99.90;;;;;;6094168;23;20013;-79
2022/03/08 08:02:10;;;;;;;19.85;11.40;;;3.70;99.90;;;;;;6070735;23;20063;-80
2022/03/08 08:04:36;;;;;;;18.05;11.25;;;4.30;99.90;;;;;;6071153;23;20021;-80
2022/03/08 08:07:01;;;;;;;16.10;10.88;;;3.60;99.90;;;;;;6119287;23;20044;-80
2022/03/08 08:09:27;;;;;;;19.73;11.57;;;4.30;99.90;;;;;;6118929;23;20100;-79
2022/03/08 08:11:53;;;;;;;14.75;10.10;;;4.30;99.90;;;;;;6118232;23;20024;-79
2022/03/08 08:14:19;;;;;;;18.20;10.57;;;4.10;99.90;;;;;;6095432;23;20036;-79
2022/03/08 08:16:45;;;;;;;20.48;11.55;;;4.10;99.90;;;;;;6094397;23;20027;-79
2022/03/08 08:19:11;;;;;;;19.05;11.90;;;4.60;99.90;;;;;;6093981;23;20017;-79
2022/03/08 08:21:37;;;;;;;17.95;11.02;;;4.70;99.90;;;;;;6094219;23;20036;-79
2022/03/08 08:24:04;;;;;;;15.82;10.75;;;4.90;99.90;;;;;;6094346;23;20026;-79
2022/03/08 08:26:30;;;;;;;17.60;10.15;;;4.70;99.90;;;;;;6094063;23;20025;-79
2022/03/08 08:28:56;;;;;;;17.23;10.52;;;4.50;99.90;;;;;;6095341;23;20017;-79
2022/03/08 08:31:23;;;;;;;15.30;9.63;;;5.10;99.90;;;;;;6070895;23;20017;-79
2022/03/08 08:33:52;;;;;;;15.30;10.55;;;4.80;99.90;;;;;;6095609;23;20497;-79
2022/03/08 08:36:18;;;;;;;15.95;10.98;;;5.10;99.90;;;;;;6119122;23;20021;-79
2022/03/08 08:38:43;;;;;;;17.48;10.32;;;5.50;99.90;;;;;;6095093;23;20013;-79
2022/03/08 08:41:09;;;;;;;13.23;9.73;;;5.60;99.90;;;;;;6093784;23;20677;-79
2022/03/08 08:43:35;;;;;;;15.18;10.00;;;5.80;99.90;;;;;;6093733;23;20026;-79
2022/03/08 08:46:01;;;;;;;14.60;10.20;;;5.70;99.90;;;;;;6094333;23;20469;-79
2022/03/08 08:48:27;;;;;;;15.77;10.02;;;5.70;99.90;;;;;;6093982;23;20025;-79
2022/03/08 08:50:53;;;;;;;14.05;10.18;;;6.00;99.90;;;;;;6094617;23;20022;-79
2022/03/08 08:53:19;;;;;;;13.63;9.40;;;7.10;99.90;;;;;;6070406;23;20025;-79
2022/03/08 08:55:45;;;;;;;12.88;9.15;;;7.30;98.70;;;;;;6093402;23;20104;-79
2022/03/08 08:58:11;;;;;;;12.50;9.43;;;7.80;97.10;;;;;;6142778;23;20054;-80
2022/03/08 09:00:37;;;;;;;12.77;9.45;;;8.20;95.70;;;;;;6093461;23;20559;-80
2022/03/08 09:03:03;;;;;;;12.95;9.10;;;8.80;96.20;;;;;;6094091;23;20033;-80
2022/03/08 09:05:29;;;;;;;12.18;9.07;;;9.20;95.10;;;;;;6094812;23;20064;-80
2022/03/08 09:07:55;;;;;;;11.95;10.10;;;9.70;93.90;;;;;;6119268;23;20627;-81
2022/03/08 09:10:23;;;;;;;13.13;9.25;;;10.00;93.50;;;;;;6069630;23;20064;-81
2022/03/08 09:12:51;;;;;;;14.05;8.82;;;10.30;90.60;;;;;;6118650;23;20659;-78
2022/03/08 09:15:18;;;;;;;13.60;9.48;;;10.30;90.40;;;;;;6094065;23;20017;-78
2022/03/08 09:17:44;;;;;;;13.20;9.18;;;10.20;88.50;;;;;;6143664;23;20017;-78
2022/03/08 09:20:11;;;;;;;12.35;9.27;;;10.60;89.90;;;;;;6118171;23;20033;-78
2022/03/08 09:22:37;;;;;;;10.95;8.57;;;11.20;90.00;;;;;;6118832;23;20025;-79
2022/03/08 09:25:04;;;;;;;11.82;8.88;;;11.40;85.00;;;;;;6143625;23;20018;-78
2022/03/08 09:27:30;;;;;;;10.75;8.60;;;11.90;84.20;;;;;;6143759;23;20021;-78
2022/03/08 09:29:56;;;;;;;12.45;8.45;;;12.10;83.10;;;;;;6142759;23;20013;-79
2022/03/08 09:32:22;;;;;;;11.75;9.00;;;12.90;82.60;;;;;;6142883;23;20393;-79
2022/03/08 09:34:48;;;;;;;11.68;8.38;;;12.40;78.90;;;;;;6095136;23;20601;-79
2022/03/08 09:37:14;;;;;;;10.02;8.38;;;12.30;79.60;;;;;;6118546;23;20100;-80
2022/03/08 09:39:40;;;;;;;11.13;8.07;;;11.90;76.40;;;;;;6118495;23;20017;-79
2022/03/08 09:42:06;;;;;;;11.55;7.80;;;11.50;75.40;;;;;;6118775;23;20564;-79
2022/03/08 09:44:32;;;;;;;10.82;8.20;;;11.70;77.50;;;;;;6118302;23;20026;-80
2022/03/08 09:46:58;;;;;;;11.38;8.13;;;11.60;75.80;;;;;;6143454;23;20021;-79
2022/03/08 09:49:25;;;;;;;9.18;7.35;;;12.00;74.90;;;;;;6142672;23;20760;-80
2022/03/08 09:51:52;;;;;;;8.90;7.07;;;11.10;74.70;;;;;;6094358;23;20028;-79
2022/03/08 09:54:18;;;;;;;11.05;7.53;;;10.80;73.50;;;;;;6118653;23;20025;-79
2022/03/08 09:56:43;;;;;;;10.73;7.55;;;11.30;73.90;;;;;;6094333;23;20021;-79
2022/03/08 09:59:09;;;;;;;10.52;7.47;;;11.20;74.70;;;;;;6118107;23;20117;-79
2022/03/08 10:01:35;;;;;;;8.82;7.03;;;11.10;73.10;;;;;;6093562;23;20659;-79
2022/03/08 10:04:01;;;;;;;11.15;7.78;;;11.20;75.00;;;;;;6119170;23;20022;-81
2022/03/08 10:06:44;;;;;;;9.20;7.40;;;11.30;72.50;;;;;;6094564;23;20396;-81
2022/03/08 10:09:17;;;;;;;9.00;7.03;;;11.50;73.50;;;;;;6118584;23;20025;-81
2022/03/08 10:11:43;;;;;;;8.73;7.07;;;11.90;72.90;;;;;;6118139;23;20025;-81
2022/03/08 10:14:26;;;;;;;9.82;7.35;;;11.70;72.70;;;;;;6094561;23;20047;-81
2022/03/08 10:16:52;;;;;;;11.98;7.20;;;12.40;73.30;;;;;;6142765;23;20046;-81
2022/03/08 10:19:18;;;;;;;10.70;7.00;;;12.90;72.70;;;;;;6142935;23;20021;-81
2022/03/08 10:21:51;;;;;;;10.18;7.03;;;13.20;70.50;;;;;;6118061;23;20108;-81
2022/03/08 10:24:26;;;;;;;9.93;7.10;;;13.30;67.00;;;;;;6093957;23;20022;-78
2022/03/08 10:27:00;;;;;;;9.60;7.07;;;12.80;65.80;;;;;;6094095;23;20013;-80
2022/03/08 10:29:27;;;;;;;7.82;6.60;;;12.40;67.40;;;;;;6094171;23;20077;-80
2022/03/08 10:32:22;;;;;;;8.77;6.78;;;12.10;67.00;;;;;;6094528;23;20069;-81
2022/03/08 10:34:52;;;;;;;7.13;6.28;;;11.70;65.80;;;;;;6076766;23;20296;-81
2022/03/08 10:37:20;;;;;;;7.53;5.80;;;11.60;66.70;;;;;;6119473;23;20021;-81
2022/03/08 10:39:56;;;;;;;6.13;5.32;;;11.30;66.70;;;;;;6093653;23;20048;-81
2022/03/08 10:42:28;;;;;;;7.78;5.63;;;11.50;65.40;;;;;;6093864;23;20449;-81
2022/03/08 10:45:04;;;;;;;7.55;6.25;;;11.60;67.30;;;;;;6094519;23;20018;-81
2022/03/08 10:47:41;;;;;;;7.72;5.18;;;12.00;66.60;;;;;;6143645;23;20073;-81
2022/03/08 10:50:09;;;;;;;10.77;5.63;;;12.30;64.00;;;;;;6094476;23;20453;-80
2022/03/08 10:52:38;;;;;;;7.35;5.72;;;12.90;62.50;;;;;;6117990;23;20546;-81
2022/03/08 10:55:16;;;;;;;7.00;5.72;;;13.30;63.80;;;;;;6118192;23;20491;-81
2022/03/08 10:57:43;;;;;;;7.70;5.22;;;13.00;61.60;;;;;;6093555;23;20148;-81
2022/03/08 11:00:15;;;;;;;5.95;5.13;;;12.70;61.60;;;;;;6115733;23;20148;-79
2022/03/08 11:02:55;;;;;;;8.57;5.63;;;11.60;62.40;;;;;;6092638;23;20006;-81
2022/03/08 11:05:24;;;;;;;7.50;5.70;;;11.40;63.30;;;;;;6117160;23;20077;-82
2022/03/08 11:07:51;;;;;;;10.40;5.38;;;11.80;63.60;;;;;;6117330;23;20492;-82
2022/03/08 11:10:18;;;;;;;7.30;5.13;;;11.80;63.90;;;;;;6093461;23;20064;-82
2022/03/08 11:12:44;;;;;;;9.52;5.13;;;12.00;64.10;;;;;;6092502;23;20025;-79
2022/03/08 11:15:14;;;;;;;10.10;6.00;;;11.90;64.00;;;;;;6093301;23;20022;-80
2022/03/08 11:17:42;;;;;;;7.22;5.53;;;12.10;64.30;;;;;;6093209;23;20040;-80
2022/03/08 11:20:10;;;;;;;9.02;6.05;;;12.10;65.30;;;;;;6093112;23;20013;-80
2022/03/08 11:22:38;;;;;;;6.03;4.90;;;12.40;62.10;;;;;;6094094;23;20022;-80
2022/03/08 11:25:05;;;;;;;8.48;5.40;;;12.60;61.90;;;;;;6119175;23;20048;-80
2022/03/08 11:27:32;;;;;;;7.75;5.63;;;12.80;62.10;;;;;;6094649;23;20348;-79
2022/03/08 11:29:57;;;;;;;7.55;5.70;;;12.50;61.70;;;;;;6119453;23;20089;-80
2022/03/08 11:32:43;;;;;;;7.68;5.82;;;12.20;62.40;;;;;;6094868;23;20013;-80
2022/03/08 11:35:43;;;;;;;7.85;5.50;;;12.30;63.10;;;;;;6142959;23;20022;-80
2022/03/08 11:38:14;;;;;;;8.18;5.47;;;12.40;63.10;;;;;;6094853;23;20084;-79
2022/03/08 11:40:55;;;;;;;6.35;5.15;;;12.30;63.30;;;;;;6094661;23;20078;-80
2022/03/08 11:43:55;;;;;;;6.43;4.63;;;12.10;63.10;;;;;;6119129;23;20031;-80
2022/03/08 11:46:22;;;;;;;9.02;5.07;;;11.60;63.80;;;;;;6118493;23;20016;-80
2022/03/08 11:48:54;;;;;;;6.82;4.35;;;11.10;64.30;;;;;;6094384;23;20097;-80
2022/03/08 11:51:20;;;;;;;6.28;5.43;;;11.00;63.50;;;;;;6118690;23;20022;-80
2022/03/08 11:53:47;;;;;;;10.18;5.30;;;11.00;64.50;;;;;;6094732;23;20021;-80
2022/03/08 11:56:21;;;;;;;34.67;8.77;;;11.00;65.20;;;;;;6118927;23;20022;-80
2022/03/08 11:58:49;;;;;;;9.63;4.82;;;11.20;66.70;;;;;;6143950;23;20040;-80
2022/03/08 12:01:36;;;;;;;11.68;5.90;;;11.00;64.40;;;;;;6118700;23;20077;-79
2022/03/08 12:04:12;;;;;;;8.93;5.63;;;11.10;64.70;;;;;;6119314;23;20017;-80
2022/03/08 12:06:40;;;;;;;8.55;5.40;;;11.20;65.10;;;;;;6095303;23;20488;-80
2022/03/08 12:09:15;;;;;;;7.95;4.75;;;11.30;63.90;;;;;;6094938;23;20028;-80
2022/03/08 12:11:42;;;;;;;7.50;5.05;;;11.10;63.00;;;;;;6094198;23;20124;-81
2022/03/08 12:14:13;;;;;;;7.47;5.68;;;11.10;64.00;;;;;;6118651;23;20497;-80
2022/03/08 12:16:45;;;;;;;7.43;5.93;;;11.40;65.70;;;;;;6143191;23;20021;-80
2022/03/08 12:19:12;;;;;;;10.93;5.22;;;11.60;65.60;;;;;;6095237;23;20108;-80
2022/03/08 12:21:54;;;;;;;7.57;4.95;;;11.70;65.40;;;;;;6119657;23;20092;-80
2022/03/08 12:24:21;;;;;;;7.10;4.70;;;11.90;64.10;;;;;;6119106;23;20069;-80
2022/03/08 12:26:59;;;;;;;7.53;5.07;;;12.00;63.30;;;;;;6094258;23;20021;-80
2022/03/08 12:29:53;;;;;;;8.45;4.95;;;12.00;64.40;;;;;;6119334;23;20021;-80
2022/03/08 12:32:25;;;;;;;7.60;5.10;;;12.00;63.50;;;;;;6118170;23;20022;-80
2022/03/08 12:34:53;;;;;;;7.93;5.20;;;12.00;62.40;;;;;;6117165;23;20084;-80
2022/03/08 12:37:24;;;;;;;6.88;4.82;;;12.20;63.20;;;;;;6119318;23;20510;-80